sensor_id;sensor_type;location;lat;lon;timestamp;P1;durP1;ratioP1;P2;durP2;ratioP2
71435;SDS011;59251;51.326;12.370;2023-08-31T00:01:07;5.05;;;1.20;;
71435;SDS011;59251;51.326;12.370;2023-08-31T00:03:34;6.05;;;1.55;;
71435;SDS011;59251;51.326;12.370;2023-08-31T00:06:01;4.85;;;0.98;;
71435;SDS011;59251;51.326;12.370;2023-08-31T00:08:29;5.73;;;1.20;;
71435;SDS011;59251;51.326;12.370;2023-08-31T00:10:56;6.72;;;1.20;;
71435;SDS011;59251;51.326;12.370;2023-08-31T00:13:24;5.05;;;1.08;;
71435;SDS011;59251;51.326;12.370;2023-08-31T00:15:53;5.25;;;1.20;;
71435;SDS011;59251;51.326;12.370;2023-08-31T00:18:21;5.55;;;1.02;;
71435;SDS011;59251;51.326;12.370;2023-08-31T00:20:49;5.23;;;1.17;;
71435;SDS011;59251;51.326;12.370;2023-08-31T00:23:16;4.80;;;1.20;;
71435;SDS011;59251;51.326;12.370;2023-08-31T00:25:44;4.93;;;1.20;;
71435;SDS011;59251;51.326;12.370;2023-08-31T00:28:10;5.85;;;1.48;;
71435;SDS011;59251;51.326;12.370;2023-08-31T00:30:38;5.72;;;1.17;;
71435;SDS011;59251;51.326;12.370;2023-08-31T00:33:06;5.10;;;1.30;;
71435;SDS011;59251;51.326;12.370;2023-08-31T00:35:33;5.55;;;1.50;;
71435;SDS011;59251;51.326;12.370;2023-08-31T00:38:00;5.20;;;1.17;;
71435;SDS011;59251;51.326;12.370;2023-08-31T00:40:29;5.60;;;1.48;;
71435;SDS011;59251;51.326;12.370;2023-08-31T00:42:57;5.88;;;1.35;;
71435;SDS011;59251;51.326;12.370;2023-08-31T00:45:25;8.03;;;1.53;;
71435;SDS011;59251;51.326;12.370;2023-08-31T00:47:54;6.32;;;1.20;;
71435;SDS011;59251;51.326;12.370;2023-08-31T00:50:22;7.25;;;1.80;;
71435;SDS011;59251;51.326;12.370;2023-08-31T00:52:49;6.53;;;1.75;;
71435;SDS011;59251;51.326;12.370;2023-08-31T00:55:15;8.20;;;1.77;;
71435;SDS011;59251;51.326;12.370;2023-08-31T00:57:43;7.17;;;2.07;;
71435;SDS011;59251;51.326;12.370;2023-08-31T01:00:10;6.63;;;1.77;;
71435;SDS011;59251;51.326;12.370;2023-08-31T01:02:40;6.68;;;1.50;;
71435;SDS011;59251;51.326;12.370;2023-08-31T01:05:18;6.05;;;1.42;;
71435;SDS011;59251;51.326;12.370;2023-08-31T01:07:59;6.70;;;1.67;;
71435;SDS011;59251;51.326;12.370;2023-08-31T01:10:43;7.33;;;1.90;;
71435;SDS011;59251;51.326;12.370;2023-08-31T01:13:15;5.80;;;1.40;;
71435;SDS011;59251;51.326;12.370;2023-08-31T01:15:50;6.07;;;1.55;;
71435;SDS011;59251;51.326;12.370;2023-08-31T01:18:21;5.03;;;1.20;;
71435;SDS011;59251;51.326;12.370;2023-08-31T01:20:55;5.88;;;1.80;;
71435;SDS011;59251;51.326;12.370;2023-08-31T01:23:29;6.37;;;1.50;;
71435;SDS011;59251;51.326;12.370;2023-08-31T01:26:01;5.18;;;1.23;;
71435;SDS011;59251;51.326;12.370;2023-08-31T01:28:28;5.60;;;1.48;;
71435;SDS011;59251;51.326;12.370;2023-08-31T01:30:56;6.22;;;1.30;;
71435;SDS011;59251;51.326;12.370;2023-08-31T01:33:23;6.25;;;1.10;;
71435;SDS011;59251;51.326;12.370;2023-08-31T01:35:50;6.10;;;1.07;;
71435;SDS011;59251;51.326;12.370;2023-08-31T01:38:24;5.82;;;1.40;;
71435;SDS011;59251;51.326;12.370;2023-08-31T01:40:53;6.65;;;1.35;;
71435;SDS011;59251;51.326;12.370;2023-08-31T01:43:26;4.95;;;1.15;;
71435;SDS011;59251;51.326;12.370;2023-08-31T01:45:53;5.70;;;1.50;;
71435;SDS011;59251;51.326;12.370;2023-08-31T01:48:21;5.73;;;1.27;;
71435;SDS011;59251;51.326;12.370;2023-08-31T01:50:47;4.60;;;1.02;;
71435;SDS011;59251;51.326;12.370;2023-08-31T01:53:14;6.00;;;1.40;;
71435;SDS011;59251;51.326;12.370;2023-08-31T01:55:41;6.43;;;1.40;;
71435;SDS011;59251;51.326;12.370;2023-08-31T01:58:07;6.80;;;1.50;;
71435;SDS011;59251;51.326;12.370;2023-08-31T02:00:35;5.33;;;1.33;;
71435;SDS011;59251;51.326;12.370;2023-08-31T02:03:03;5.65;;;1.27;;
71435;SDS011;59251;51.326;12.370;2023-08-31T02:05:31;5.13;;;1.13;;
71435;SDS011;59251;51.326;12.370;2023-08-31T02:07:58;5.50;;;1.33;;
71435;SDS011;59251;51.326;12.370;2023-08-31T02:10:24;6.35;;;1.40;;
71435;SDS011;59251;51.326;12.370;2023-08-31T02:12:52;4.80;;;1.03;;
71435;SDS011;59251;51.326;12.370;2023-08-31T02:15:19;5.03;;;1.20;;
71435;SDS011;59251;51.326;12.370;2023-08-31T02:17:47;6.13;;;1.55;;
71435;SDS011;59251;51.326;12.370;2023-08-31T02:20:14;5.18;;;1.27;;
71435;SDS011;59251;51.326;12.370;2023-08-31T02:22:41;5.05;;;1.20;;
71435;SDS011;59251;51.326;12.370;2023-08-31T02:25:08;6.10;;;1.30;;
71435;SDS011;59251;51.326;12.370;2023-08-31T02:27:34;5.07;;;0.88;;
71435;SDS011;59251;51.326;12.370;2023-08-31T02:30:01;6.20;;;1.30;;
71435;SDS011;59251;51.326;12.370;2023-08-31T02:32:30;5.20;;;1.13;;
71435;SDS011;59251;51.326;12.370;2023-08-31T02:34:58;5.93;;;1.30;;
71435;SDS011;59251;51.326;12.370;2023-08-31T02:37:26;5.43;;;1.03;;
71435;SDS011;59251;51.326;12.370;2023-08-31T02:39:52;4.85;;;1.00;;
71435;SDS011;59251;51.326;12.370;2023-08-31T02:42:19;5.70;;;1.10;;
71435;SDS011;59251;51.326;12.370;2023-08-31T02:44:46;5.20;;;1.20;;
71435;SDS011;59251;51.326;12.370;2023-08-31T02:47:12;5.93;;;1.50;;
71435;SDS011;59251;51.326;12.370;2023-08-31T02:49:39;7.13;;;1.57;;
71435;SDS011;59251;51.326;12.370;2023-08-31T02:52:07;6.70;;;1.83;;
71435;SDS011;59251;51.326;12.370;2023-08-31T02:54:34;5.38;;;1.52;;
71435;SDS011;59251;51.326;12.370;2023-08-31T02:57:01;5.55;;;1.60;;
71435;SDS011;59251;51.326;12.370;2023-08-31T02:59:28;7.18;;;1.90;;
71435;SDS011;59251;51.326;12.370;2023-08-31T03:01:55;6.53;;;1.40;;
71435;SDS011;59251;51.326;12.370;2023-08-31T03:04:21;9.38;;;2.15;;
71435;SDS011;59251;51.326;12.370;2023-08-31T03:06:48;5.35;;;1.40;;
71435;SDS011;59251;51.326;12.370;2023-08-31T03:09:16;6.82;;;1.73;;
71435;SDS011;59251;51.326;12.370;2023-08-31T03:11:44;6.90;;;2.00;;
71435;SDS011;59251;51.326;12.370;2023-08-31T03:14:11;6.33;;;2.03;;
71435;SDS011;59251;51.326;12.370;2023-08-31T03:16:38;9.55;;;2.15;;
71435;SDS011;59251;51.326;12.370;2023-08-31T03:19:05;6.38;;;1.75;;
71435;SDS011;59251;51.326;12.370;2023-08-31T03:21:32;6.47;;;2.00;;
71435;SDS011;59251;51.326;12.370;2023-08-31T03:23:59;7.90;;;2.13;;
71435;SDS011;59251;51.326;12.370;2023-08-31T03:26:27;6.83;;;1.87;;
71435;SDS011;59251;51.326;12.370;2023-08-31T03:28:54;6.43;;;2.00;;
71435;SDS011;59251;51.326;12.370;2023-08-31T03:31:21;6.82;;;2.13;;
71435;SDS011;59251;51.326;12.370;2023-08-31T03:33:48;7.05;;;2.13;;
71435;SDS011;59251;51.326;12.370;2023-08-31T03:36:16;7.10;;;2.47;;
71435;SDS011;59251;51.326;12.370;2023-08-31T03:38:43;8.40;;;2.40;;
71435;SDS011;59251;51.326;12.370;2023-08-31T03:41:09;8.13;;;2.42;;
71435;SDS011;59251;51.326;12.370;2023-08-31T03:43:39;7.28;;;2.55;;
71435;SDS011;59251;51.326;12.370;2023-08-31T03:46:06;9.15;;;2.90;;
71435;SDS011;59251;51.326;12.370;2023-08-31T03:48:33;6.95;;;2.30;;
71435;SDS011;59251;51.326;12.370;2023-08-31T03:51:00;7.23;;;2.60;;
71435;SDS011;59251;51.326;12.370;2023-08-31T03:53:26;8.40;;;2.40;;
71435;SDS011;59251;51.326;12.370;2023-08-31T03:55:56;7.88;;;2.97;;
71435;SDS011;59251;51.326;12.370;2023-08-31T03:58:23;9.02;;;3.00;;
71435;SDS011;59251;51.326;12.370;2023-08-31T04:00:53;8.10;;;3.25;;
71435;SDS011;59251;51.326;12.370;2023-08-31T04:03:20;9.50;;;3.07;;
71435;SDS011;59251;51.326;12.370;2023-08-31T04:05:47;7.40;;;3.25;;
71435;SDS011;59251;51.326;12.370;2023-08-31T04:08:14;8.80;;;3.17;;
71435;SDS011;59251;51.326;12.370;2023-08-31T04:10:40;8.20;;;3.10;;
71435;SDS011;59251;51.326;12.370;2023-08-31T04:13:07;9.02;;;3.60;;
71435;SDS011;59251;51.326;12.370;2023-08-31T04:15:34;8.93;;;3.30;;
71435;SDS011;59251;51.326;12.370;2023-08-31T04:18:02;10.05;;;4.00;;
71435;SDS011;59251;51.326;12.370;2023-08-31T04:20:29;9.75;;;4.03;;
71435;SDS011;59251;51.326;12.370;2023-08-31T04:22:55;8.82;;;3.85;;
71435;SDS011;59251;51.326;12.370;2023-08-31T04:25:22;10.75;;;4.22;;
71435;SDS011;59251;51.326;12.370;2023-08-31T04:27:49;11.00;;;4.23;;
71435;SDS011;59251;51.326;12.370;2023-08-31T04:30:15;10.05;;;4.25;;
71435;SDS011;59251;51.326;12.370;2023-08-31T04:32:42;9.18;;;4.35;;
71435;SDS011;59251;51.326;12.370;2023-08-31T04:35:11;9.68;;;4.25;;
71435;SDS011;59251;51.326;12.370;2023-08-31T04:37:37;10.38;;;4.32;;
71435;SDS011;59251;51.326;12.370;2023-08-31T04:40:04;10.83;;;4.17;;
71435;SDS011;59251;51.326;12.370;2023-08-31T04:42:33;10.88;;;4.80;;
71435;SDS011;59251;51.326;12.370;2023-08-31T04:45:01;13.82;;;5.30;;
71435;SDS011;59251;51.326;12.370;2023-08-31T04:47:27;11.65;;;4.85;;
71435;SDS011;59251;51.326;12.370;2023-08-31T04:49:54;9.75;;;4.10;;
71435;SDS011;59251;51.326;12.370;2023-08-31T04:52:23;9.83;;;4.67;;
71435;SDS011;59251;51.326;12.370;2023-08-31T04:54:50;12.07;;;4.68;;
71435;SDS011;59251;51.326;12.370;2023-08-31T04:57:17;11.00;;;4.63;;
71435;SDS011;59251;51.326;12.370;2023-08-31T04:59:44;10.63;;;4.85;;
71435;SDS011;59251;51.326;12.370;2023-08-31T05:02:11;12.13;;;4.60;;
71435;SDS011;59251;51.326;12.370;2023-08-31T05:04:38;11.43;;;4.87;;
71435;SDS011;59251;51.326;12.370;2023-08-31T05:07:04;11.68;;;5.10;;
71435;SDS011;59251;51.326;12.370;2023-08-31T05:09:32;11.15;;;4.70;;
71435;SDS011;59251;51.326;12.370;2023-08-31T05:12:00;10.10;;;4.50;;
71435;SDS011;59251;51.326;12.370;2023-08-31T05:14:27;9.80;;;4.07;;
71435;SDS011;59251;51.326;12.370;2023-08-31T05:16:53;13.23;;;5.23;;
71435;SDS011;59251;51.326;12.370;2023-08-31T05:19:20;11.85;;;5.32;;
71435;SDS011;59251;51.326;12.370;2023-08-31T05:21:47;11.05;;;5.60;;
71435;SDS011;59251;51.326;12.370;2023-08-31T05:24:14;12.65;;;5.05;;
71435;SDS011;59251;51.326;12.370;2023-08-31T05:26:42;12.48;;;5.97;;
71435;SDS011;59251;51.326;12.370;2023-08-31T05:29:08;11.27;;;4.67;;
71435;SDS011;59251;51.326;12.370;2023-08-31T05:31:35;11.93;;;5.60;;
71435;SDS011;59251;51.326;12.370;2023-08-31T05:34:02;13.23;;;5.63;;
71435;SDS011;59251;51.326;12.370;2023-08-31T05:36:29;12.93;;;5.57;;
71435;SDS011;59251;51.326;12.370;2023-08-31T05:38:56;11.57;;;5.13;;
71435;SDS011;59251;51.326;12.370;2023-08-31T05:41:22;13.47;;;6.13;;
71435;SDS011;59251;51.326;12.370;2023-08-31T05:43:51;12.77;;;5.82;;
71435;SDS011;59251;51.326;12.370;2023-08-31T05:46:18;12.63;;;6.28;;
71435;SDS011;59251;51.326;12.370;2023-08-31T05:48:45;13.90;;;5.70;;
71435;SDS011;59251;51.326;12.370;2023-08-31T05:51:12;13.30;;;5.43;;
71435;SDS011;59251;51.326;12.370;2023-08-31T05:53:38;9.17;;;4.50;;
71435;SDS011;59251;51.326;12.370;2023-08-31T05:56:05;14.07;;;5.72;;
71435;SDS011;59251;51.326;12.370;2023-08-31T05:58:32;12.70;;;5.32;;
71435;SDS011;59251;51.326;12.370;2023-08-31T06:01:01;13.32;;;5.18;;
71435;SDS011;59251;51.326;12.370;2023-08-31T06:03:28;11.90;;;4.55;;
71435;SDS011;59251;51.326;12.370;2023-08-31T06:05:56;12.97;;;5.17;;
71435;SDS011;59251;51.326;12.370;2023-08-31T06:08:23;11.45;;;5.88;;
71435;SDS011;59251;51.326;12.370;2023-08-31T06:10:50;12.07;;;5.05;;
71435;SDS011;59251;51.326;12.370;2023-08-31T06:13:17;14.95;;;5.13;;
71435;SDS011;59251;51.326;12.370;2023-08-31T06:15:43;12.38;;;5.10;;
71435;SDS011;59251;51.326;12.370;2023-08-31T06:18:12;11.40;;;5.17;;
71435;SDS011;59251;51.326;12.370;2023-08-31T06:20:39;14.57;;;5.05;;
71435;SDS011;59251;51.326;12.370;2023-08-31T06:23:05;11.48;;;4.90;;
71435;SDS011;59251;51.326;12.370;2023-08-31T06:25:32;12.65;;;5.43;;
71435;SDS011;59251;51.326;12.370;2023-08-31T06:27:59;11.23;;;5.05;;
71435;SDS011;59251;51.326;12.370;2023-08-31T06:30:25;12.60;;;4.90;;
71435;SDS011;59251;51.326;12.370;2023-08-31T06:32:52;11.15;;;5.70;;
71435;SDS011;59251;51.326;12.370;2023-08-31T06:35:20;10.20;;;5.35;;
71435;SDS011;59251;51.326;12.370;2023-08-31T06:37:47;12.43;;;5.05;;
71435;SDS011;59251;51.326;12.370;2023-08-31T06:40:15;12.52;;;5.05;;
71435;SDS011;59251;51.326;12.370;2023-08-31T06:42:42;10.97;;;4.73;;
71435;SDS011;59251;51.326;12.370;2023-08-31T06:45:10;9.32;;;4.47;;
71435;SDS011;59251;51.326;12.370;2023-08-31T06:47:36;10.82;;;5.05;;
71435;SDS011;59251;51.326;12.370;2023-08-31T06:50:03;10.77;;;4.50;;
71435;SDS011;59251;51.326;12.370;2023-08-31T06:52:33;9.73;;;4.15;;
71435;SDS011;59251;51.326;12.370;2023-08-31T06:55:00;12.60;;;4.37;;
71435;SDS011;59251;51.326;12.370;2023-08-31T06:57:27;11.80;;;4.38;;
71435;SDS011;59251;51.326;12.370;2023-08-31T06:59:54;8.70;;;4.10;;
71435;SDS011;59251;51.326;12.370;2023-08-31T07:02:20;11.50;;;4.03;;
71435;SDS011;59251;51.326;12.370;2023-08-31T07:04:49;10.18;;;3.70;;
71435;SDS011;59251;51.326;12.370;2023-08-31T07:07:17;9.77;;;4.50;;
71435;SDS011;59251;51.326;12.370;2023-08-31T07:09:45;8.10;;;3.70;;
71435;SDS011;59251;51.326;12.370;2023-08-31T07:12:13;11.90;;;4.50;;
71435;SDS011;59251;51.326;12.370;2023-08-31T07:14:40;8.90;;;3.75;;
71435;SDS011;59251;51.326;12.370;2023-08-31T07:17:06;8.10;;;3.88;;
71435;SDS011;59251;51.326;12.370;2023-08-31T07:19:35;10.80;;;3.70;;
71435;SDS011;59251;51.326;12.370;2023-08-31T07:22:02;9.65;;;3.63;;
71435;SDS011;59251;51.326;12.370;2023-08-31T07:24:31;10.18;;;4.13;;
71435;SDS011;59251;51.326;12.370;2023-08-31T07:27:01;8.30;;;3.40;;
71435;SDS011;59251;51.326;12.370;2023-08-31T07:29:28;7.28;;;3.25;;
71435;SDS011;59251;51.326;12.370;2023-08-31T07:31:55;11.77;;;3.40;;
71435;SDS011;59251;51.326;12.370;2023-08-31T07:34:22;8.13;;;3.50;;
71435;SDS011;59251;51.326;12.370;2023-08-31T07:36:48;8.88;;;4.05;;
71435;SDS011;59251;51.326;12.370;2023-08-31T07:39:15;8.32;;;3.30;;
71435;SDS011;59251;51.326;12.370;2023-08-31T07:41:43;9.18;;;3.42;;
71435;SDS011;59251;51.326;12.370;2023-08-31T07:44:11;9.13;;;3.40;;
71435;SDS011;59251;51.326;12.370;2023-08-31T07:46:38;9.63;;;3.80;;
71435;SDS011;59251;51.326;12.370;2023-08-31T07:49:04;9.30;;;4.00;;
71435;SDS011;59251;51.326;12.370;2023-08-31T07:51:31;11.63;;;4.53;;
71435;SDS011;59251;51.326;12.370;2023-08-31T07:53:59;9.57;;;3.50;;
71435;SDS011;59251;51.326;12.370;2023-08-31T07:56:26;8.77;;;3.40;;
71435;SDS011;59251;51.326;12.370;2023-08-31T07:58:52;9.00;;;2.83;;
71435;SDS011;59251;51.326;12.370;2023-08-31T08:01:20;7.47;;;3.10;;
71435;SDS011;59251;51.326;12.370;2023-08-31T08:03:47;7.07;;;3.20;;
71435;SDS011;59251;51.326;12.370;2023-08-31T08:06:14;7.93;;;3.20;;
71435;SDS011;59251;51.326;12.370;2023-08-31T08:08:41;10.97;;;3.53;;
71435;SDS011;59251;51.326;12.370;2023-08-31T08:11:08;9.38;;;3.45;;
71435;SDS011;59251;51.326;12.370;2023-08-31T08:13:34;8.20;;;3.63;;
71435;SDS011;59251;51.326;12.370;2023-08-31T08:16:01;8.30;;;3.65;;
71435;SDS011;59251;51.326;12.370;2023-08-31T08:18:29;8.60;;;3.10;;
71435;SDS011;59251;51.326;12.370;2023-08-31T08:20:56;9.57;;;2.87;;
71435;SDS011;59251;51.326;12.370;2023-08-31T08:23:23;8.63;;;3.60;;
71435;SDS011;59251;51.326;12.370;2023-08-31T08:25:49;7.55;;;2.53;;
71435;SDS011;59251;51.326;12.370;2023-08-31T08:28:16;8.65;;;2.70;;
71435;SDS011;59251;51.326;12.370;2023-08-31T08:30:43;6.90;;;2.50;;
71435;SDS011;59251;51.326;12.370;2023-08-31T08:33:09;11.87;;;3.10;;
71435;SDS011;59251;51.326;12.370;2023-08-31T08:35:38;11.57;;;3.40;;
71435;SDS011;59251;51.326;12.370;2023-08-31T08:38:05;9.00;;;3.30;;
71435;SDS011;59251;51.326;12.370;2023-08-31T08:40:31;14.05;;;3.38;;
71435;SDS011;59251;51.326;12.370;2023-08-31T08:42:58;8.18;;;3.10;;
71435;SDS011;59251;51.326;12.370;2023-08-31T08:45:28;9.30;;;3.47;;
71435;SDS011;59251;51.326;12.370;2023-08-31T08:48:02;9.50;;;3.20;;
71435;SDS011;59251;51.326;12.370;2023-08-31T08:50:31;6.97;;;3.38;;
71435;SDS011;59251;51.326;12.370;2023-08-31T08:53:01;8.73;;;3.55;;
71435;SDS011;59251;51.326;12.370;2023-08-31T08:55:28;7.57;;;3.22;;
71435;SDS011;59251;51.326;12.370;2023-08-31T08:57:55;8.80;;;2.93;;
71435;SDS011;59251;51.326;12.370;2023-08-31T09:00:22;9.02;;;3.20;;
71435;SDS011;59251;51.326;12.370;2023-08-31T09:02:49;8.35;;;3.30;;
71435;SDS011;59251;51.326;12.370;2023-08-31T09:05:15;7.63;;;3.38;;
71435;SDS011;59251;51.326;12.370;2023-08-31T09:10:32;7.93;;;2.90;;
71435;SDS011;59251;51.326;12.370;2023-08-31T09:13:00;7.32;;;2.17;;
71435;SDS011;59251;51.326;12.370;2023-08-31T09:15:35;6.75;;;1.75;;
71435;SDS011;59251;51.326;12.370;2023-08-31T09:18:03;8.13;;;3.10;;
71435;SDS011;59251;51.326;12.370;2023-08-31T09:20:30;6.97;;;2.00;;
71435;SDS011;59251;51.326;12.370;2023-08-31T09:22:57;8.53;;;2.50;;
71435;SDS011;59251;51.326;12.370;2023-08-31T09:25:25;8.25;;;2.83;;
71435;SDS011;59251;51.326;12.370;2023-08-31T09:27:52;9.68;;;3.65;;
71435;SDS011;59251;51.326;12.370;2023-08-31T09:30:19;9.60;;;3.13;;
71435;SDS011;59251;51.326;12.370;2023-08-31T09:32:51;11.43;;;3.28;;
71435;SDS011;59251;51.326;12.370;2023-08-31T09:35:18;5.83;;;2.23;;
71435;SDS011;59251;51.326;12.370;2023-08-31T09:37:52;6.80;;;2.20;;
71435;SDS011;59251;51.326;12.370;2023-08-31T09:40:22;5.28;;;1.80;;
71435;SDS011;59251;51.326;12.370;2023-08-31T09:42:50;6.43;;;1.77;;
71435;SDS011;59251;51.326;12.370;2023-08-31T09:45:17;6.07;;;2.10;;
71435;SDS011;59251;51.326;12.370;2023-08-31T09:47:50;6.87;;;1.50;;
71435;SDS011;59251;51.326;12.370;2023-08-31T09:50:17;5.82;;;1.40;;
71435;SDS011;59251;51.326;12.370;2023-08-31T09:52:45;5.25;;;1.20;;
71435;SDS011;59251;51.326;12.370;2023-08-31T09:55:13;4.82;;;0.95;;
71435;SDS011;59251;51.326;12.370;2023-08-31T09:57:40;4.55;;;1.10;;
71435;SDS011;59251;51.326;12.370;2023-08-31T10:00:09;4.67;;;1.20;;
71435;SDS011;59251;51.326;12.370;2023-08-31T10:02:40;7.07;;;1.63;;
71435;SDS011;59251;51.326;12.370;2023-08-31T10:05:08;9.32;;;1.40;;
71435;SDS011;59251;51.326;12.370;2023-08-31T10:07:35;6.43;;;1.52;;
71435;SDS011;59251;51.326;12.370;2023-08-31T10:10:03;6.95;;;1.85;;
71435;SDS011;59251;51.326;12.370;2023-08-31T10:12:31;6.27;;;1.60;;
71435;SDS011;59251;51.326;12.370;2023-08-31T10:14:59;6.10;;;1.73;;
71435;SDS011;59251;51.326;12.370;2023-08-31T10:17:28;6.82;;;2.10;;
71435;SDS011;59251;51.326;12.370;2023-08-31T10:19:55;6.50;;;2.17;;
71435;SDS011;59251;51.326;12.370;2023-08-31T10:22:22;7.15;;;2.20;;
71435;SDS011;59251;51.326;12.370;2023-08-31T10:24:58;6.37;;;1.90;;
71435;SDS011;59251;51.326;12.370;2023-08-31T10:27:26;6.43;;;1.83;;
71435;SDS011;59251;51.326;12.370;2023-08-31T10:29:53;7.18;;;1.83;;
71435;SDS011;59251;51.326;12.370;2023-08-31T10:32:20;6.65;;;1.80;;
71435;SDS011;59251;51.326;12.370;2023-08-31T10:35:08;7.50;;;1.83;;
71435;SDS011;59251;51.326;12.370;2023-08-31T10:37:35;5.83;;;1.87;;
71435;SDS011;59251;51.326;12.370;2023-08-31T10:40:08;6.40;;;1.58;;
71435;SDS011;59251;51.326;12.370;2023-08-31T10:42:43;5.85;;;1.70;;
71435;SDS011;59251;51.326;12.370;2023-08-31T10:45:10;6.88;;;1.50;;
71435;SDS011;59251;51.326;12.370;2023-08-31T10:47:37;6.38;;;1.63;;
71435;SDS011;59251;51.326;12.370;2023-08-31T10:50:19;5.97;;;1.20;;
71435;SDS011;59251;51.326;12.370;2023-08-31T10:52:47;5.15;;;1.30;;
71435;SDS011;59251;51.326;12.370;2023-08-31T10:55:14;6.38;;;1.52;;
71435;SDS011;59251;51.326;12.370;2023-08-31T10:57:41;5.00;;;1.38;;
71435;SDS011;59251;51.326;12.370;2023-08-31T11:00:08;5.80;;;1.23;;
71435;SDS011;59251;51.326;12.370;2023-08-31T11:02:37;6.83;;;1.10;;
71435;SDS011;59251;51.326;12.370;2023-08-31T11:05:08;4.97;;;1.40;;
71435;SDS011;59251;51.326;12.370;2023-08-31T11:07:37;5.13;;;1.20;;
71435;SDS011;59251;51.326;12.370;2023-08-31T11:10:06;5.13;;;1.30;;
71435;SDS011;59251;51.326;12.370;2023-08-31T11:12:34;6.55;;;1.60;;
71435;SDS011;59251;51.326;12.370;2023-08-31T11:15:01;5.60;;;1.30;;
71435;SDS011;59251;51.326;12.370;2023-08-31T11:17:29;6.45;;;1.20;;
71435;SDS011;59251;51.326;12.370;2023-08-31T11:19:57;6.20;;;1.55;;
71435;SDS011;59251;51.326;12.370;2023-08-31T11:22:24;6.00;;;1.50;;
71435;SDS011;59251;51.326;12.370;2023-08-31T11:24:52;5.05;;;1.20;;
71435;SDS011;59251;51.326;12.370;2023-08-31T11:27:19;4.70;;;1.30;;
71435;SDS011;59251;51.326;12.370;2023-08-31T11:29:46;5.40;;;1.17;;
71435;SDS011;59251;51.326;12.370;2023-08-31T11:32:13;6.57;;;1.30;;
71435;SDS011;59251;51.326;12.370;2023-08-31T11:34:40;6.22;;;1.38;;
71435;SDS011;59251;51.326;12.370;2023-08-31T11:37:08;5.25;;;1.20;;
71435;SDS011;59251;51.326;12.370;2023-08-31T11:39:36;6.63;;;1.50;;
71435;SDS011;59251;51.326;12.370;2023-08-31T11:42:06;5.30;;;1.20;;
71435;SDS011;59251;51.326;12.370;2023-08-31T11:44:33;5.60;;;1.13;;
71435;SDS011;59251;51.326;12.370;2023-08-31T11:47:00;4.82;;;1.20;;
71435;SDS011;59251;51.326;12.370;2023-08-31T11:49:27;5.63;;;1.20;;
71435;SDS011;59251;51.326;12.370;2023-08-31T11:51:54;5.37;;;1.20;;
71435;SDS011;59251;51.326;12.370;2023-08-31T11:54:21;6.03;;;1.00;;
71435;SDS011;59251;51.326;12.370;2023-08-31T11:56:51;4.60;;;1.00;;
71435;SDS011;59251;51.326;12.370;2023-08-31T11:59:19;4.88;;;1.13;;
71435;SDS011;59251;51.326;12.370;2023-08-31T12:01:47;4.45;;;1.00;;
71435;SDS011;59251;51.326;12.370;2023-08-31T12:04:14;5.40;;;1.00;;
71435;SDS011;59251;51.326;12.370;2023-08-31T12:06:45;5.53;;;1.30;;
71435;SDS011;59251;51.326;12.370;2023-08-31T12:09:13;6.47;;;1.40;;
71435;SDS011;59251;51.326;12.370;2023-08-31T12:11:40;5.50;;;1.13;;
71435;SDS011;59251;51.326;12.370;2023-08-31T12:14:19;4.40;;;1.13;;
71435;SDS011;59251;51.326;12.370;2023-08-31T12:16:48;4.97;;;1.20;;
71435;SDS011;59251;51.326;12.370;2023-08-31T12:19:15;5.18;;;1.17;;
71435;SDS011;59251;51.326;12.370;2023-08-31T12:21:42;4.78;;;1.05;;
71435;SDS011;59251;51.326;12.370;2023-08-31T12:24:11;5.50;;;1.30;;
71435;SDS011;59251;51.326;12.370;2023-08-31T12:26:38;6.15;;;1.17;;
71435;SDS011;59251;51.326;12.370;2023-08-31T12:29:05;6.50;;;1.00;;
71435;SDS011;59251;51.326;12.370;2023-08-31T12:31:33;4.75;;;1.17;;
71435;SDS011;59251;51.326;12.370;2023-08-31T12:34:00;4.75;;;0.98;;
71435;SDS011;59251;51.326;12.370;2023-08-31T12:36:31;5.75;;;1.00;;
71435;SDS011;59251;51.326;12.370;2023-08-31T12:38:58;4.40;;;1.08;;
71435;SDS011;59251;51.326;12.370;2023-08-31T12:41:26;4.40;;;1.00;;
71435;SDS011;59251;51.326;12.370;2023-08-31T12:43:53;5.97;;;1.15;;
71435;SDS011;59251;51.326;12.370;2023-08-31T12:46:20;4.85;;;1.00;;
71435;SDS011;59251;51.326;12.370;2023-08-31T12:48:48;6.05;;;1.20;;
71435;SDS011;59251;51.326;12.370;2023-08-31T12:51:15;5.47;;;1.20;;
71435;SDS011;59251;51.326;12.370;2023-08-31T12:53:41;6.80;;;1.10;;
71435;SDS011;59251;51.326;12.370;2023-08-31T12:56:08;4.90;;;1.10;;
71435;SDS011;59251;51.326;12.370;2023-08-31T12:58:36;4.72;;;1.08;;
71435;SDS011;59251;51.326;12.370;2023-08-31T13:01:03;5.22;;;1.10;;
71435;SDS011;59251;51.326;12.370;2023-08-31T13:03:30;4.63;;;1.20;;
71435;SDS011;59251;51.326;12.370;2023-08-31T13:05:58;4.80;;;0.90;;
71435;SDS011;59251;51.326;12.370;2023-08-31T13:08:25;5.18;;;0.95;;
71435;SDS011;59251;51.326;12.370;2023-08-31T13:10:51;4.20;;;1.00;;
71435;SDS011;59251;51.326;12.370;2023-08-31T13:13:19;4.82;;;1.05;;
71435;SDS011;59251;51.326;12.370;2023-08-31T13:15:46;4.55;;;1.00;;
71435;SDS011;59251;51.326;12.370;2023-08-31T13:18:12;6.47;;;1.10;;
71435;SDS011;59251;51.326;12.370;2023-08-31T13:20:39;4.57;;;1.15;;
71435;SDS011;59251;51.326;12.370;2023-08-31T13:23:07;4.72;;;1.27;;
71435;SDS011;59251;51.326;12.370;2023-08-31T13:25:34;6.55;;;1.17;;
71435;SDS011;59251;51.326;12.370;2023-08-31T13:28:01;4.15;;;1.10;;
71435;SDS011;59251;51.326;12.370;2023-08-31T13:30:29;6.33;;;0.97;;
71435;SDS011;59251;51.326;12.370;2023-08-31T13:32:55;7.00;;;1.25;;
71435;SDS011;59251;51.326;12.370;2023-08-31T13:35:22;5.15;;;1.10;;
71435;SDS011;59251;51.326;12.370;2023-08-31T13:37:49;4.30;;;0.80;;
71435;SDS011;59251;51.326;12.370;2023-08-31T13:40:17;4.65;;;0.85;;
71435;SDS011;59251;51.326;12.370;2023-08-31T13:42:48;4.30;;;0.90;;
71435;SDS011;59251;51.326;12.370;2023-08-31T13:45:19;4.90;;;1.00;;
71435;SDS011;59251;51.326;12.370;2023-08-31T13:47:46;5.90;;;1.20;;
71435;SDS011;59251;51.326;12.370;2023-08-31T13:50:14;5.60;;;1.00;;
71435;SDS011;59251;51.326;12.370;2023-08-31T13:52:41;5.43;;;1.20;;
71435;SDS011;59251;51.326;12.370;2023-08-31T13:55:08;4.30;;;1.00;;
71435;SDS011;59251;51.326;12.370;2023-08-31T13:57:36;5.28;;;0.80;;
71435;SDS011;59251;51.326;12.370;2023-08-31T14:00:03;5.60;;;1.25;;
71435;SDS011;59251;51.326;12.370;2023-08-31T14:02:34;5.40;;;0.88;;
71435;SDS011;59251;51.326;12.370;2023-08-31T14:05:02;5.85;;;1.02;;
71435;SDS011;59251;51.326;12.370;2023-08-31T14:07:29;4.70;;;0.97;;
71435;SDS011;59251;51.326;12.370;2023-08-31T14:09:55;5.80;;;0.80;;
71435;SDS011;59251;51.326;12.370;2023-08-31T14:12:23;5.68;;;1.05;;
71435;SDS011;59251;51.326;12.370;2023-08-31T14:14:52;4.72;;;1.10;;
71435;SDS011;59251;51.326;12.370;2023-08-31T14:17:20;4.95;;;1.00;;
71435;SDS011;59251;51.326;12.370;2023-08-31T14:19:46;5.37;;;0.97;;
71435;SDS011;59251;51.326;12.370;2023-08-31T14:22:13;8.05;;;1.30;;
71435;SDS011;59251;51.326;12.370;2023-08-31T14:24:40;4.75;;;1.20;;
71435;SDS011;59251;51.326;12.370;2023-08-31T14:27:06;4.88;;;1.10;;
71435;SDS011;59251;51.326;12.370;2023-08-31T14:29:33;4.72;;;1.00;;
71435;SDS011;59251;51.326;12.370;2023-08-31T14:32:02;4.60;;;1.00;;
71435;SDS011;59251;51.326;12.370;2023-08-31T14:34:29;4.55;;;1.15;;
71435;SDS011;59251;51.326;12.370;2023-08-31T14:36:57;5.68;;;1.00;;